Terminal Aerodrome Forecast
Issued by NWS

Home | Current Version | Previous Version | Text Only | Print | Product List | Glossary Off
Versions: 1 2 3 4 5 6 7 8 9 10 11 12

122
FTUS43 KBIS 132326
TAFDIK
TAF
KDIK 132326Z 1400/1424 27010KT P6SM SKC
     FM141100 25006KT P6SM SKC
     FM141700 22007KT P6SM SKC=

USA.gov is the U.S. government's official web portal to all federal, state and local government web resources and services.